Time;durP1;ratioP1;P1;durP2;ratioP2;P2;SDS_P1;SDS_P2;PMS_P1;PMS_P2;Temp;Humidity;BMP_temperature;BMP_pressure;BME280_temperature;BME280_humidity;BME280_pressure;Samples;Min_cycle;Max_cycle;Signal;HPM_P1;HPM_P2
2023/12/28 00:01:46;;;;;;;9.13;2.80;;;;;;;;;;5131714;27;20185;-80
2023/12/28 00:04:13;;;;;;;5.05;2.17;;;;;;;;;;5130905;27;20042;-80
2023/12/28 00:06:40;;;;;;;7.10;2.70;;;;;;;;;;5130300;27;20127;-78
2023/12/28 00:09:08;;;;;;;8.77;2.75;;;;;;;;;;5132041;27;20039;-79
2023/12/28 00:11:38;;;;;;;8.20;3.15;;;;;;;;;;5129719;27;20422;-79
2023/12/28 00:14:06;;;;;;;5.53;2.45;;;;;;;;;;5129853;27;20081;-79
2023/12/28 00:16:33;;;;;;;7.40;2.55;;;;;;;;;;5130511;27;20043;-78
2023/12/28 00:19:02;;;;;;;6.55;2.53;;;;;;;;;;5136774;27;20107;-79
2023/12/28 00:21:30;;;;;;;6.78;2.88;;;;;;;;;;5138710;27;20042;-79
2023/12/28 00:23:56;;;;;;;8.60;3.10;;;;;;;;;;5133646;27;20130;-79
2023/12/28 00:26:23;;;;;;;13.95;3.60;;;;;;;;;;5134387;27;20114;-79
2023/12/28 00:28:50;;;;;;;9.18;3.13;;;;;;;;;;5137213;27;20046;-79
2023/12/28 00:31:17;;;;;;;11.65;4.28;;;;;;;;;;5135506;27;20043;-79
2023/12/28 00:33:44;;;;;;;7.53;3.83;;;;;;;;;;5132036;27;20046;-78
2023/12/28 00:36:10;;;;;;;7.50;3.63;;;;;;;;;;5133322;27;20047;-79
2023/12/28 00:38:37;;;;;;;9.25;4.05;;;;;;;;;;5133009;27;20075;-78
2023/12/28 00:41:04;;;;;;;7.35;4.00;;;;;;;;;;5129725;27;20061;-80
2023/12/28 00:43:31;;;;;;;8.13;3.75;;;;;;;;;;5129276;27;20643;-79
2023/12/28 00:45:57;;;;;;;6.38;3.17;;;;;;;;;;5129712;27;20399;-79
2023/12/28 00:48:24;;;;;;;5.75;3.00;;;;;;;;;;5128852;27;20534;-79
2023/12/28 00:50:52;;;;;;;6.00;2.38;;;;;;;;;;5129041;27;20055;-79
2023/12/28 00:53:19;;;;;;;7.78;2.85;;;;;;;;;;5128843;27;20039;-79
2023/12/28 00:55:46;;;;;;;5.72;2.53;;;;;;;;;;5129235;27;20135;-79
2023/12/28 00:58:13;;;;;;;4.75;2.50;;;;;;;;;;5129164;27;20043;-79
2023/12/28 01:00:39;;;;;;;6.20;2.00;;;;;;;;;;5129066;27;20051;-79
2023/12/28 01:03:06;;;;;;;5.25;2.00;;;;;;;;;;5129097;28;20073;-79
2023/12/28 01:05:33;;;;;;;4.43;2.28;;;;;;;;;;5129604;28;20430;-79
2023/12/28 01:08:00;;;;;;;4.63;2.15;;;;;;;;;;5132788;28;20802;-79
2023/12/28 01:10:26;;;;;;;5.78;2.17;;;;;;;;;;5133432;28;20355;-79
2023/12/28 01:12:53;;;;;;;5.00;2.22;;;;;;;;;;5129576;28;20487;-79
2023/12/28 01:15:20;;;;;;;7.97;1.90;;;;;;;;;;5128681;28;20051;-79
2023/12/28 01:17:47;;;;;;;3.75;1.88;;;;;;;;;;5129641;28;20039;-79
2023/12/28 01:20:14;;;;;;;3.58;1.80;;;;;;;;;;5129047;28;20039;-79
2023/12/28 01:22:41;;;;;;;4.45;1.80;;;;;;;;;;5131724;28;20479;-78
2023/12/28 01:25:07;;;;;;;3.45;1.80;;;;;;;;;;5129267;28;20066;-79
2023/12/28 01:27:34;;;;;;;6.13;1.92;;;;;;;;;;5129830;28;20119;-79
2023/12/28 01:30:01;;;;;;;3.85;2.03;;;;;;;;;;5131975;28;20043;-79
2023/12/28 01:32:28;;;;;;;3.90;1.90;;;;;;;;;;5128528;28;20043;-79
2023/12/28 01:34:55;;;;;;;7.72;2.38;;;;;;;;;;5129363;28;20197;-79
2023/12/28 01:37:22;;;;;;;3.50;1.80;;;;;;;;;;5133901;28;20047;-79
2023/12/28 01:39:49;;;;;;;3.83;2.13;;;;;;;;;;5132328;28;20047;-78
2023/12/28 01:42:16;;;;;;;3.80;1.90;;;;;;;;;;5130913;28;20043;-79
2023/12/28 01:44:43;;;;;;;3.88;1.80;;;;;;;;;;5135921;28;20051;-78
2023/12/28 01:47:10;;;;;;;4.07;1.85;;;;;;;;;;5131849;27;20051;-79
2023/12/28 01:49:37;;;;;;;3.75;1.88;;;;;;;;;;5128701;28;20057;-79
2023/12/28 01:52:04;;;;;;;4.05;1.55;;;;;;;;;;5128572;27;20449;-79
2023/12/28 01:54:32;;;;;;;2.33;1.58;;;;;;;;;;5133698;27;20066;-79
2023/12/28 01:57:00;;;;;;;4.13;1.83;;;;;;;;;;5133106;27;20076;-78
2023/12/28 01:59:27;;;;;;;4.95;1.88;;;;;;;;;;5132221;27;20047;-78
2023/12/28 02:01:54;;;;;;;4.05;2.10;;;;;;;;;;5132320;27;20047;-78
2023/12/28 02:04:27;;;;;;;5.40;1.92;;;;;;;;;;5132706;27;20047;-79
2023/12/28 02:06:59;;;;;;;2.85;1.63;;;;;;;;;;5132273;27;20051;-79
2023/12/28 02:09:26;;;;;;;2.88;1.85;;;;;;;;;;5131572;27;20503;-79
2023/12/28 02:11:54;;;;;;;4.07;2.08;;;;;;;;;;5132022;27;20054;-78
2023/12/28 02:14:22;;;;;;;6.18;2.88;;;;;;;;;;5132291;27;20069;-78
2023/12/28 02:17:03;;;;;;;4.75;2.50;;;;;;;;;;5131711;27;20406;-78
2023/12/28 02:19:47;;;;;;;3.63;1.83;;;;;;;;;;5132269;27;20043;-78
2023/12/28 02:22:18;;;;;;;6.35;1.75;;;;;;;;;;5132057;27;20242;-78
2023/12/28 02:25:17;;;;;;;5.18;2.10;;;;;;;;;;5131114;27;20047;-78
2023/12/28 02:27:46;;;;;;;5.38;2.22;;;;;;;;;;5077976;27;20043;-78
2023/12/28 02:30:16;;;;;;;4.35;2.20;;;;;;;;;;5132198;27;20044;-78
2023/12/28 02:33:15;;;;;;;3.22;1.88;;;;;;;;;;5132138;27;20062;-78
2023/12/28 02:35:46;;;;;;;4.07;2.28;;;;;;;;;;5122537;27;20506;-78
2023/12/28 02:38:15;;;;;;;5.25;2.28;;;;;;;;;;5139988;27;20047;-79
2023/12/28 02:40:44;;;;;;;6.18;2.22;;;;;;;;;;5131693;27;20039;-79
2023/12/28 02:43:11;;;;;;;4.63;2.45;;;;;;;;;;5131721;27;20491;-79
2023/12/28 02:45:39;;;;;;;4.50;2.40;;;;;;;;;;5131878;27;20047;-78
2023/12/28 02:48:06;;;;;;;4.45;2.50;;;;;;;;;;5131389;27;20419;-78
2023/12/28 02:50:34;;;;;;;4.78;2.17;;;;;;;;;;5131363;27;20047;-78
2023/12/28 02:53:02;;;;;;;5.03;1.95;;;;;;;;;;5131276;27;20507;-78
2023/12/28 02:55:29;;;;;;;3.47;1.98;;;;;;;;;;5137100;27;20047;-79
2023/12/28 02:58:00;;;;;;;5.15;2.55;;;;;;;;;;5132046;27;20070;-79
2023/12/28 03:00:27;;;;;;;5.20;2.10;;;;;;;;;;5131960;27;20164;-79
2023/12/28 03:02:55;;;;;;;4.28;2.03;;;;;;;;;;5132199;27;20043;-79
2023/12/28 03:05:22;;;;;;;3.53;1.90;;;;;;;;;;5131188;27;20039;-79
2023/12/28 03:07:49;;;;;;;2.85;1.65;;;;;;;;;;5131331;27;20538;-79
2023/12/28 03:10:17;;;;;;;4.43;2.15;;;;;;;;;;5131304;27;20406;-78
2023/12/28 03:12:43;;;;;;;5.50;2.08;;;;;;;;;;5131015;27;20050;-79
2023/12/28 03:15:10;;;;;;;5.90;2.10;;;;;;;;;;5130810;27;20050;-79
2023/12/28 03:17:37;;;;;;;2.60;1.80;;;;;;;;;;5131235;27;20108;-79
2023/12/28 03:20:05;;;;;;;3.17;1.80;;;;;;;;;;5130966;27;20055;-79
2023/12/28 03:22:32;;;;;;;4.03;2.08;;;;;;;;;;5134956;27;20422;-79
2023/12/28 03:24:59;;;;;;;3.35;1.65;;;;;;;;;;5133637;27;20047;-79
2023/12/28 03:27:26;;;;;;;5.88;2.20;;;;;;;;;;5130775;27;20043;-78
2023/12/28 03:29:53;;;;;;;4.78;2.00;;;;;;;;;;5134203;27;20043;-78
2023/12/28 03:32:20;;;;;;;3.17;2.05;;;;;;;;;;5131092;27;20039;-79
2023/12/28 03:34:46;;;;;;;3.47;2.17;;;;;;;;;;5131655;27;20043;-79
2023/12/28 03:37:13;;;;;;;5.90;2.13;;;;;;;;;;5135630;27;20054;-79
2023/12/28 03:39:40;;;;;;;3.05;1.85;;;;;;;;;;5133090;27;20043;-79
2023/12/28 03:42:07;;;;;;;3.67;2.05;;;;;;;;;;5137733;27;20043;-79
2023/12/28 03:44:34;;;;;;;3.70;2.10;;;;;;;;;;5132742;27;20130;-79
2023/12/28 03:47:00;;;;;;;2.85;1.75;;;;;;;;;;5135145;27;20050;-79
2023/12/28 03:49:27;;;;;;;3.67;2.00;;;;;;;;;;5130519;27;20660;-78
2023/12/28 03:51:54;;;;;;;3.30;1.95;;;;;;;;;;5133451;27;20050;-78
2023/12/28 03:54:21;;;;;;;6.28;2.00;;;;;;;;;;5129791;27;20422;-79
2023/12/28 03:56:48;;;;;;;3.22;1.70;;;;;;;;;;5130958;27;20621;-79
2023/12/28 03:59:15;;;;;;;3.03;1.67;;;;;;;;;;5130022;27;20085;-79
2023/12/28 04:01:42;;;;;;;3.47;1.90;;;;;;;;;;5130119;27;20043;-79
2023/12/28 04:04:09;;;;;;;4.28;2.10;;;;;;;;;;5132102;27;20067;-79
2023/12/28 04:06:37;;;;;;;3.25;1.77;;;;;;;;;;5130288;27;20069;-79
2023/12/28 04:09:04;;;;;;;2.75;1.80;;;;;;;;;;5110821;27;20760;-79
2023/12/28 04:11:31;;;;;;;3.10;1.73;;;;;;;;;;5129699;27;20473;-79
2023/12/28 04:13:58;;;;;;;3.75;1.70;;;;;;;;;;5130190;27;20047;-79
2023/12/28 04:16:25;;;;;;;4.43;2.13;;;;;;;;;;5129398;27;20051;-78
2023/12/28 04:18:51;;;;;;;2.53;1.55;;;;;;;;;;5130252;27;20043;-76
2023/12/28 04:21:18;;;;;;;3.05;2.00;;;;;;;;;;5132337;27;20071;-77
2023/12/28 04:23:45;;;;;;;3.10;1.85;;;;;;;;;;5130305;27;20061;-77
2023/12/28 04:26:12;;;;;;;2.65;1.80;;;;;;;;;;5132658;27;20053;-77
2023/12/28 04:28:39;;;;;;;4.15;1.65;;;;;;;;;;5130902;27;20051;-77
2023/12/28 04:31:06;;;;;;;2.75;1.75;;;;;;;;;;5130551;27;20388;-77
2023/12/28 04:33:33;;;;;;;2.47;1.48;;;;;;;;;;5131202;27;20047;-76
2023/12/28 04:36:03;;;;;;;3.65;1.65;;;;;;;;;;5134322;27;20043;-77
2023/12/28 04:38:31;;;;;;;2.45;1.60;;;;;;;;;;5134545;27;20047;-77
2023/12/28 04:40:58;;;;;;;3.35;1.73;;;;;;;;;;5134830;27;20043;-77
2023/12/28 04:43:25;;;;;;;3.33;1.80;;;;;;;;;;5138511;27;20046;-77
2023/12/28 04:45:52;;;;;;;3.58;1.95;;;;;;;;;;5114861;27;20053;-77
2023/12/28 04:48:23;;;;;;;6.25;2.00;;;;;;;;;;5131752;27;20047;-77
2023/12/28 04:50:52;;;;;;;2.90;1.38;;;;;;;;;;5137202;27;20053;-77
2023/12/28 04:53:19;;;;;;;2.25;1.63;;;;;;;;;;5136933;27;20240;-76
2023/12/28 04:55:46;;;;;;;2.45;1.52;;;;;;;;;;5135383;27;20051;-77
2023/12/28 04:58:14;;;;;;;3.33;1.55;;;;;;;;;;5131449;27;20047;-77
2023/12/28 05:00:40;;;;;;;2.85;1.48;;;;;;;;;;5135119;27;20064;-76
2023/12/28 05:03:07;;;;;;;2.80;1.55;;;;;;;;;;5132061;27;20116;-77
2023/12/28 05:05:34;;;;;;;3.70;2.10;;;;;;;;;;5132462;28;20047;-77
2023/12/28 05:08:01;;;;;;;3.33;1.65;;;;;;;;;;5131261;28;20138;-77
2023/12/28 05:10:28;;;;;;;5.53;1.88;;;;;;;;;;5133562;28;20075;-77
2023/12/28 05:12:55;;;;;;;3.05;1.77;;;;;;;;;;5130434;28;20074;-77
2023/12/28 05:15:28;;;;;;;2.97;1.52;;;;;;;;;;5134123;28;20043;-77
2023/12/28 05:17:55;;;;;;;2.65;1.50;;;;;;;;;;5129934;28;20477;-77
2023/12/28 05:20:22;;;;;;;2.08;1.33;;;;;;;;;;5130290;28;20051;-77
2023/12/28 05:22:49;;;;;;;3.67;1.48;;;;;;;;;;5130256;28;20511;-76
2023/12/28 05:25:15;;;;;;;2.42;1.48;;;;;;;;;;5130072;28;20051;-77
2023/12/28 05:27:42;;;;;;;4.82;1.73;;;;;;;;;;5130908;27;20055;-77
2023/12/28 05:30:10;;;;;;;5.53;2.05;;;;;;;;;;5134160;27;20146;-77
2023/12/28 05:32:38;;;;;;;4.25;1.67;;;;;;;;;;5133988;27;20491;-77
2023/12/28 05:35:06;;;;;;;2.60;1.42;;;;;;;;;;5134538;27;20445;-77
2023/12/28 05:37:32;;;;;;;3.30;1.73;;;;;;;;;;5138227;27;20074;-77
2023/12/28 05:39:59;;;;;;;2.30;1.40;;;;;;;;;;5118279;27;20136;-77
2023/12/28 05:42:26;;;;;;;2.25;1.55;;;;;;;;;;5134082;27;20155;-77
2023/12/28 05:44:53;;;;;;;2.80;1.70;;;;;;;;;;5134223;27;20047;-77
2023/12/28 05:47:23;;;;;;;2.00;1.38;;;;;;;;;;5134258;27;20046;-76
2023/12/28 05:49:51;;;;;;;4.75;1.67;;;;;;;;;;5133639;27;20047;-77
2023/12/28 05:52:19;;;;;;;5.35;1.50;;;;;;;;;;5134811;27;20055;-76
2023/12/28 05:54:47;;;;;;;3.55;1.70;;;;;;;;;;5136374;27;20888;-77
2023/12/28 05:57:15;;;;;;;3.38;1.73;;;;;;;;;;5139870;27;20490;-77
2023/12/28 05:59:41;;;;;;;2.65;1.80;;;;;;;;;;5136368;27;20043;-77
2023/12/28 06:02:08;;;;;;;2.28;1.50;;;;;;;;;;5139833;27;20047;-77
2023/12/28 06:04:38;;;;;;;2.50;1.50;;;;;;;;;;5141739;27;20379;-76
2023/12/28 06:07:08;;;;;;;2.37;1.40;;;;;;;;;;5141056;27;20043;-77
2023/12/28 06:09:38;;;;;;;2.17;1.35;;;;;;;;;;5139443;27;20046;-76
2023/12/28 06:12:08;;;;;;;3.67;1.52;;;;;;;;;;5142796;27;20170;-77
2023/12/28 06:14:38;;;;;;;2.47;1.55;;;;;;;;;;5144800;27;20066;-77
2023/12/28 06:17:04;;;;;;;3.15;1.40;;;;;;;;;;5143953;27;20608;-77
2023/12/28 06:19:31;;;;;;;3.88;1.52;;;;;;;;;;5144213;27;20383;-77
2023/12/28 06:21:58;;;;;;;2.78;1.70;;;;;;;;;;5143834;27;20043;-77
2023/12/28 06:24:25;;;;;;;5.20;1.90;;;;;;;;;;5144218;27;20422;-77
2023/12/28 06:26:52;;;;;;;2.20;1.60;;;;;;;;;;5125747;27;20441;-77
2023/12/28 06:29:19;;;;;;;2.88;1.70;;;;;;;;;;5143659;27;20050;-77
2023/12/28 06:31:45;;;;;;;4.68;2.00;;;;;;;;;;5144079;27;20043;-77
2023/12/28 06:34:12;;;;;;;7.82;2.50;;;;;;;;;;5125760;27;20043;-77
2023/12/28 06:36:39;;;;;;;3.05;1.55;;;;;;;;;;5144036;27;20047;-77
2023/12/28 06:39:06;;;;;;;4.68;2.20;;;;;;;;;;5142604;27;20043;-77
2023/12/28 06:41:32;;;;;;;4.65;1.75;;;;;;;;;;5143163;27;20050;-77
2023/12/28 06:43:59;;;;;;;4.03;2.08;;;;;;;;;;5143788;27;20110;-77
2023/12/28 06:46:26;;;;;;;3.60;1.63;;;;;;;;;;5143542;27;20319;-77
2023/12/28 06:48:52;;;;;;;2.88;1.80;;;;;;;;;;5143846;27;20095;-77
2023/12/28 06:51:20;;;;;;;4.15;2.08;;;;;;;;;;5143230;27;20043;-77
2023/12/28 06:53:48;;;;;;;4.13;1.67;;;;;;;;;;5144551;27;20351;-77
2023/12/28 06:56:15;;;;;;;4.35;1.77;;;;;;;;;;5144552;27;20043;-77
2023/12/28 06:58:42;;;;;;;2.70;1.63;;;;;;;;;;5144364;27;20054;-77
2023/12/28 07:01:10;;;;;;;3.17;1.65;;;;;;;;;;5144091;27;20402;-76
2023/12/28 07:03:38;;;;;;;4.70;2.17;;;;;;;;;;5126569;27;20049;-77
2023/12/28 07:06:08;;;;;;;3.10;1.60;;;;;;;;;;5144402;27;20050;-77
2023/12/28 07:08:36;;;;;;;3.53;1.70;;;;;;;;;;5142911;27;20051;-77
2023/12/28 07:11:03;;;;;;;3.90;1.50;;;;;;;;;;5142304;27;20043;-77
2023/12/28 07:13:31;;;;;;;3.45;1.80;;;;;;;;;;5142865;27;20096;-77
2023/12/28 07:15:58;;;;;;;3.38;1.60;;;;;;;;;;5143443;27;20066;-77
2023/12/28 07:18:27;;;;;;;2.42;1.50;;;;;;;;;;5142892;27;20047;-77
2023/12/28 07:20:54;;;;;;;3.10;2.00;;;;;;;;;;5143732;27;20164;-77
2023/12/28 07:23:21;;;;;;;5.93;1.73;;;;;;;;;;5142779;27;20039;-77
2023/12/28 07:25:48;;;;;;;3.58;1.80;;;;;;;;;;5141950;27;20139;-77
2023/12/28 07:28:15;;;;;;;3.40;1.70;;;;;;;;;;5142606;27;20110;-77
2023/12/28 07:30:42;;;;;;;3.90;1.73;;;;;;;;;;5124665;27;20047;-77
2023/12/28 07:33:09;;;;;;;3.35;1.92;;;;;;;;;;5142331;27;20047;-77
2023/12/28 07:35:36;;;;;;;3.70;1.60;;;;;;;;;;5124019;27;20377;-77
2023/12/28 07:38:03;;;;;;;2.88;1.88;;;;;;;;;;5142178;27;20047;-77
2023/12/28 07:40:30;;;;;;;4.88;1.80;;;;;;;;;;5141333;27;20324;-77
2023/12/28 07:42:56;;;;;;;4.22;2.00;;;;;;;;;;5142196;27;20127;-77
2023/12/28 07:45:24;;;;;;;3.92;1.77;;;;;;;;;;5142500;27;20039;-77
2023/12/28 07:47:51;;;;;;;2.92;1.73;;;;;;;;;;5124193;27;20391;-77
2023/12/28 07:50:19;;;;;;;3.10;1.98;;;;;;;;;;5142124;27;20110;-77
2023/12/28 07:52:46;;;;;;;3.10;1.67;;;;;;;;;;5142498;27;20315;-77
2023/12/28 07:55:14;;;;;;;2.85;1.52;;;;;;;;;;5124149;27;20040;-78
2023/12/28 07:57:41;;;;;;;5.60;2.00;;;;;;;;;;5141285;27;20070;-77
2023/12/28 08:00:09;;;;;;;4.40;1.70;;;;;;;;;;5140999;27;20318;-77
2023/12/28 08:02:36;;;;;;;4.28;2.13;;;;;;;;;;5142722;27;20043;-77
2023/12/28 08:05:04;;;;;;;4.28;2.00;;;;;;;;;;5142881;27;20053;-77
2023/12/28 08:07:31;;;;;;;3.25;1.80;;;;;;;;;;5142633;27;20079;-77
2023/12/28 08:09:58;;;;;;;3.67;2.15;;;;;;;;;;5142661;27;20114;-77
2023/12/28 08:12:27;;;;;;;4.35;1.70;;;;;;;;;;5141158;27;20084;-77
2023/12/28 08:14:55;;;;;;;3.75;1.90;;;;;;;;;;5141846;27;20047;-77
2023/12/28 08:17:22;;;;;;;4.15;2.35;;;;;;;;;;5141502;27;20047;-77
2023/12/28 08:19:49;;;;;;;4.13;2.00;;;;;;;;;;5142139;27;20115;-77
2023/12/28 08:22:16;;;;;;;2.80;1.77;;;;;;;;;;5142065;27;20054;-77
2023/12/28 08:24:43;;;;;;;2.70;1.58;;;;;;;;;;5141274;27;20059;-77
2023/12/28 08:27:10;;;;;;;4.60;1.90;;;;;;;;;;5142093;27;20387;-77
2023/12/28 08:29:37;;;;;;;5.25;2.00;;;;;;;;;;5141751;27;20047;-77
2023/12/28 08:32:04;;;;;;;4.85;2.10;;;;;;;;;;5141615;27;20039;-76
2023/12/28 08:34:31;;;;;;;3.42;1.92;;;;;;;;;;5141785;27;20045;-77
2023/12/28 08:36:58;;;;;;;2.70;1.52;;;;;;;;;;5141336;27;20046;-77
2023/12/28 08:39:24;;;;;;;3.38;1.70;;;;;;;;;;5141674;27;20045;-77
2023/12/28 08:41:51;;;;;;;3.47;1.73;;;;;;;;;;5141310;27;20043;-77
2023/12/28 08:44:18;;;;;;;5.60;1.75;;;;;;;;;;5141901;27;20063;-77
2023/12/28 08:46:45;;;;;;;3.47;2.00;;;;;;;;;;5141992;27;20066;-77
2023/12/28 08:49:12;;;;;;;3.90;1.63;;;;;;;;;;5140702;27;20047;-76
2023/12/28 08:51:39;;;;;;;7.80;2.10;;;;;;;;;;5140875;27;20043;-77
2023/12/28 08:54:10;;;;;;;3.95;2.05;;;;;;;;;;5137293;27;20043;-78
2023/12/28 08:56:37;;;;;;;4.63;2.05;;;;;;;;;;5138868;27;20339;-77
2023/12/28 08:59:04;;;;;;;3.38;1.98;;;;;;;;;;5137085;27;20281;-75
2023/12/28 09:01:30;;;;;;;4.65;1.65;;;;;;;;;;5139714;27;20043;-77
2023/12/28 09:03:58;;;;;;;4.00;1.90;;;;;;;;;;5139603;27;20051;-83
2023/12/28 09:06:25;;;;;;;3.33;2.05;;;;;;;;;;5139688;27;20043;-76
2023/12/28 09:08:53;;;;;;;4.40;1.67;;;;;;;;;;5140624;28;20071;-77
2023/12/28 09:11:21;;;;;;;4.68;1.92;;;;;;;;;;5139618;27;20130;-77
2023/12/28 09:13:48;;;;;;;6.03;1.83;;;;;;;;;;5119898;28;20210;-74
2023/12/28 09:16:15;;;;;;;3.67;1.98;;;;;;;;;;5120188;28;20039;-75
2023/12/28 09:18:42;;;;;;;3.35;1.88;;;;;;;;;;5122586;28;20043;-75
2023/12/28 09:21:10;;;;;;;3.65;1.85;;;;;;;;;;5128220;28;20048;-78
2023/12/28 09:23:38;;;;;;;6.07;1.90;;;;;;;;;;5134925;28;20039;-77
2023/12/28 09:26:05;;;;;;;5.53;2.33;;;;;;;;;;5140540;28;20453;-80
2023/12/28 09:28:33;;;;;;;4.70;1.92;;;;;;;;;;5120059;28;20075;-76
2023/12/28 09:31:01;;;;;;;4.68;2.20;;;;;;;;;;5128564;28;20047;-79
2023/12/28 09:33:28;;;;;;;5.35;2.10;;;;;;;;;;5140913;28;20331;-79
2023/12/28 09:35:55;;;;;;;3.30;1.85;;;;;;;;;;5140426;27;20455;-77
2023/12/28 09:38:22;;;;;;;5.00;2.40;;;;;;;;;;5140399;28;20235;-76
2023/12/28 09:40:53;;;;;;;6.43;2.08;;;;;;;;;;5139967;28;20051;-77
2023/12/28 09:43:27;;;;;;;4.68;1.98;;;;;;;;;;5139555;28;20047;-77
2023/12/28 09:45:54;;;;;;;3.70;2.17;;;;;;;;;;5140078;28;20119;-75
2023/12/28 09:48:22;;;;;;;3.72;2.38;;;;;;;;;;5140300;27;20073;-77
2023/12/28 09:50:54;;;;;;;5.05;2.50;;;;;;;;;;5140189;28;20054;-77
2023/12/28 09:53:25;;;;;;;4.20;2.45;;;;;;;;;;5126641;28;20044;-76
2023/12/28 09:55:53;;;;;;;;;;;;;;;;;;5120227;28;20343;-76
2023/12/28 09:58:21;;;;;;;4.72;2.17;;;;;;;;;;5119458;27;19922;-76
2023/12/28 10:00:49;;;;;;;5.20;2.60;;;;;;;;;;5130396;28;20111;-77
2023/12/28 10:03:17;;;;;;;6.53;2.38;;;;;;;;;;5126710;28;20342;-76
2023/12/28 10:05:47;;;;;;;4.65;2.33;;;;;;;;;;5141256;28;20047;-77
2023/12/28 10:08:15;;;;;;;4.40;2.50;;;;;;;;;;5128637;28;20103;-76
2023/12/28 10:10:43;;;;;;;8.73;2.63;;;;;;;;;;5120425;28;20075;-76
2023/12/28 10:13:15;;;;;;;4.88;2.22;;;;;;;;;;5120082;28;20062;-76
2023/12/28 10:15:43;;;;;;;4.28;2.28;;;;;;;;;;5108715;27;20288;-76
2023/12/28 10:18:10;;;;;;;4.85;2.50;;;;;;;;;;5143859;27;20067;-75
2023/12/28 10:20:37;;;;;;;4.05;2.58;;;;;;;;;;5143127;27;20043;-75
2023/12/28 10:23:04;;;;;;;7.93;2.45;;;;;;;;;;5143678;27;20050;-76
2023/12/28 10:25:32;;;;;;;4.43;2.50;;;;;;;;;;5143446;27;20086;-75
2023/12/28 10:28:06;;;;;;;6.50;2.50;;;;;;;;;;5143276;27;20051;-75
2023/12/28 10:30:33;;;;;;;3.80;2.22;;;;;;;;;;5143246;27;20397;-75
2023/12/28 10:33:00;;;;;;;10.65;2.72;;;;;;;;;;5138189;27;20071;-72
2023/12/28 10:35:28;;;;;;;4.50;2.38;;;;;;;;;;5122540;28;20039;-72
2023/12/28 10:37:59;;;;;;;4.43;2.35;;;;;;;;;;5122601;28;20039;-72
2023/12/28 10:40:26;;;;;;;6.72;2.40;;;;;;;;;;5122981;28;20039;-72
2023/12/28 10:43:06;;;;;;;4.40;2.33;;;;;;;;;;5122920;28;20044;-72
2023/12/28 10:45:34;;;;;;;6.13;2.63;;;;;;;;;;5123123;28;20047;-73
2023/12/28 10:48:06;;;;;;;3.72;2.30;;;;;;;;;;5122789;28;20114;-73
2023/12/28 10:50:42;;;;;;;4.93;2.75;;;;;;;;;;5122463;28;20077;-73
2023/12/28 10:53:30;;;;;;;4.53;2.58;;;;;;;;;;5121419;28;20114;-73
2023/12/28 10:56:19;;;;;;;8.38;3.10;;;;;;;;;;5123336;28;20050;-72
2023/12/28 10:58:48;;;;;;;5.28;2.63;;;;;;;;;;5106104;28;20040;-76
2023/12/28 11:01:39;;;;;;;4.47;2.58;;;;;;;;;;5125564;27;20035;-76
2023/12/28 11:04:23;;;;;;;7.45;3.08;;;;;;;;;;5123284;27;20040;-80
2023/12/28 11:06:51;;;;;;;7.07;3.15;;;;;;;;;;5121145;28;20044;-76
2023/12/28 11:09:19;;;;;;;4.43;2.70;;;;;;;;;;5121350;28;20050;-75
2023/12/28 11:11:46;;;;;;;6.13;2.83;;;;;;;;;;5122580;28;20071;-75
2023/12/28 11:14:14;;;;;;;8.23;2.85;;;;;;;;;;5122167;28;20046;-74
2023/12/28 11:16:42;;;;;;;4.55;2.80;;;;;;;;;;5122251;28;20112;-74
2023/12/28 11:19:10;;;;;;;7.40;3.22;;;;;;;;;;5121120;28;20040;-72
2023/12/28 11:21:38;;;;;;;3.53;2.35;;;;;;;;;;5123407;28;20044;-73
2023/12/28 11:24:05;;;;;;;7.68;2.80;;;;;;;;;;5122423;28;20282;-73
2023/12/28 11:26:32;;;;;;;6.22;2.72;;;;;;;;;;5121312;27;20205;-72
2023/12/28 11:29:03;;;;;;;5.35;3.50;;;;;;;;;;5134782;27;20043;-73
2023/12/28 11:31:37;;;;;;;6.00;3.10;;;;;;;;;;5141490;27;20259;-72
2023/12/28 11:34:07;;;;;;;5.43;2.97;;;;;;;;;;5141135;27;20276;-73
2023/12/28 11:36:50;;;;;;;7.68;3.20;;;;;;;;;;5142665;27;20043;-72
2023/12/28 11:39:31;;;;;;;6.55;3.08;;;;;;;;;;5140434;27;20050;-72
2023/12/28 11:42:08;;;;;;;7.97;2.72;;;;;;;;;;5142640;27;20043;-72
2023/12/28 11:44:44;;;;;;;5.65;3.10;;;;;;;;;;5141974;27;20118;-69
2023/12/28 11:47:15;;;;;;;6.65;3.08;;;;;;;;;;5142315;27;20049;-72
2023/12/28 11:49:43;;;;;;;6.88;3.45;;;;;;;;;;5141402;27;20110;-71
2023/12/28 11:52:11;;;;;;;6.72;3.15;;;;;;;;;;5142015;27;20350;-70
2023/12/28 11:54:37;;;;;;;5.65;3.00;;;;;;;;;;5141989;27;20048;-71
2023/12/28 11:57:04;;;;;;;5.60;3.30;;;;;;;;;;5142174;27;20039;-71
2023/12/28 11:59:32;;;;;;;5.32;3.15;;;;;;;;;;5141452;27;20174;-71
2023/12/28 12:01:59;;;;;;;5.65;2.85;;;;;;;;;;5141629;27;20047;-71
2023/12/28 12:04:26;;;;;;;6.43;3.30;;;;;;;;;;5139345;27;20043;-71
2023/12/28 12:06:53;;;;;;;4.95;3.25;;;;;;;;;;5131659;27;20410;-72
2023/12/28 12:09:22;;;;;;;6.22;2.92;;;;;;;;;;5128173;27;20043;-71
2023/12/28 12:11:49;;;;;;;8.93;3.35;;;;;;;;;;5142304;27;20092;-73
2023/12/28 12:14:16;;;;;;;5.63;2.92;;;;;;;;;;5130168;27;20422;-72
2023/12/28 12:16:43;;;;;;;8.02;2.75;;;;;;;;;;5121853;28;20106;-72
2023/12/28 12:19:10;;;;;;;5.65;3.05;;;;;;;;;;5121536;28;20044;-69
2023/12/28 12:21:37;;;;;;;4.53;2.80;;;;;;;;;;5120443;28;20328;-69
2023/12/28 12:24:04;;;;;;;7.13;3.05;;;;;;;;;;5102838;28;20207;-69
2023/12/28 12:26:31;;;;;;;4.70;2.45;;;;;;;;;;5120966;28;20044;-69
2023/12/28 12:28:58;;;;;;;4.72;2.97;;;;;;;;;;5121220;28;20363;-71
2023/12/28 12:31:26;;;;;;;5.53;3.10;;;;;;;;;;5125250;27;20055;-71
2023/12/28 12:33:53;;;;;;;4.63;3.00;;;;;;;;;;5141703;27;20043;-71
2023/12/28 12:36:21;;;;;;;6.97;3.05;;;;;;;;;;5141141;27;20216;-71
2023/12/28 12:38:48;;;;;;;6.95;2.95;;;;;;;;;;5141310;27;20043;-71
2023/12/28 12:41:16;;;;;;;6.18;3.20;;;;;;;;;;5141409;27;20223;-71
2023/12/28 12:43:43;;;;;;;5.03;2.72;;;;;;;;;;5140810;27;20051;-71
2023/12/28 12:46:10;;;;;;;4.50;2.75;;;;;;;;;;5140652;27;20110;-71
2023/12/28 12:48:36;;;;;;;5.07;2.95;;;;;;;;;;5140552;27;20047;-69
2023/12/28 12:51:04;;;;;;;5.63;2.85;;;;;;;;;;5140428;27;20157;-70
2023/12/28 12:53:37;;;;;;;4.78;2.92;;;;;;;;;;5140451;27;20328;-71
2023/12/28 12:56:04;;;;;;;6.25;3.00;;;;;;;;;;5141195;27;20047;-71
2023/12/28 12:58:31;;;;;;;5.35;3.00;;;;;;;;;;5141110;27;20058;-72
2023/12/28 13:01:03;;;;;;;5.72;3.00;;;;;;;;;;5141204;27;20125;-71
2023/12/28 13:03:30;;;;;;;5.22;3.05;;;;;;;;;;5140967;27;20063;-70
2023/12/28 13:05:57;;;;;;;5.78;3.25;;;;;;;;;;5140860;28;20050;-70
2023/12/28 13:08:24;;;;;;;6.20;3.38;;;;;;;;;;5141287;28;20043;-72
2023/12/28 13:10:51;;;;;;;8.77;3.38;;;;;;;;;;5140539;28;20051;-71
2023/12/28 13:13:18;;;;;;;5.45;3.03;;;;;;;;;;5139885;28;20363;-74
2023/12/28 13:15:44;;;;;;;4.85;3.00;;;;;;;;;;5140615;28;20044;-68
2023/12/28 13:18:11;;;;;;;6.78;3.10;;;;;;;;;;5140705;28;20078;-72
2023/12/28 13:20:38;;;;;;;3.83;2.38;;;;;;;;;;5141850;28;20114;-73
2023/12/28 13:23:05;;;;;;;5.13;2.90;;;;;;;;;;5141743;28;20054;-69
2023/12/28 13:25:34;;;;;;;7.15;3.45;;;;;;;;;;5141311;28;20048;-69
2023/12/28 13:28:00;;;;;;;5.90;3.30;;;;;;;;;;5141110;28;20043;-72
2023/12/28 13:30:28;;;;;;;5.22;3.50;;;;;;;;;;5140567;28;20055;-72
2023/12/28 13:32:59;;;;;;;6.22;3.45;;;;;;;;;;5140580;28;20254;-71
2023/12/28 13:35:26;;;;;;;;;;;;;;;;;;5140697;27;20049;-70
2023/12/28 13:37:52;;;;;;;6.47;3.03;;;;;;;;;;5139879;28;19915;-70
2023/12/28 13:40:19;;;;;;;6.20;3.13;;;;;;;;;;5139841;28;20043;-69
2023/12/28 13:42:47;;;;;;;7.55;3.10;;;;;;;;;;5123217;28;20049;-70
2023/12/28 13:45:14;;;;;;;6.00;3.30;;;;;;;;;;5140400;28;20046;-72
2023/12/28 13:47:44;;;;;;;5.10;3.20;;;;;;;;;;5122833;28;20065;-78
2023/12/28 13:50:11;;;;;;;4.78;2.83;;;;;;;;;;5125819;27;20106;-74
2023/12/28 13:52:37;;;;;;;7.38;2.72;;;;;;;;;;5144473;27;20039;-74
2023/12/28 13:55:04;;;;;;;5.40;3.05;;;;;;;;;;5135849;27;20331;-81
2023/12/28 13:57:32;;;;;;;5.85;2.83;;;;;;;;;;5140543;27;20087;-76
2023/12/28 14:00:01;;;;;;;6.37;3.10;;;;;;;;;;5107556;28;20043;-71
2023/12/28 14:02:28;;;;;;;4.32;2.53;;;;;;;;;;5128148;27;20281;-72
2023/12/28 14:04:56;;;;;;;7.82;3.58;;;;;;;;;;5144442;27;20046;-69
2023/12/28 14:07:24;;;;;;;4.80;2.97;;;;;;;;;;5144859;27;20039;-68
2023/12/28 14:09:51;;;;;;;8.15;3.35;;;;;;;;;;5143762;27;20096;-69
2023/12/28 14:12:18;;;;;;;5.45;3.15;;;;;;;;;;5144484;27;20069;-73
2023/12/28 14:14:45;;;;;;;5.85;3.00;;;;;;;;;;5144635;27;20279;-71
2023/12/28 14:17:11;;;;;;;5.53;3.08;;;;;;;;;;5144658;27;20047;-72
2023/12/28 14:19:38;;;;;;;6.90;3.28;;;;;;;;;;5144388;27;20080;-73
2023/12/28 14:22:05;;;;;;;6.63;3.15;;;;;;;;;;5144879;27;20114;-71
2023/12/28 14:24:32;;;;;;;5.05;2.97;;;;;;;;;;5125928;27;20047;-70
2023/12/28 14:27:02;;;;;;;5.60;2.90;;;;;;;;;;5144468;27;20043;-73
2023/12/28 14:29:31;;;;;;;5.97;2.55;;;;;;;;;;5144012;27;20046;-72
2023/12/28 14:31:58;;;;;;;6.10;3.22;;;;;;;;;;5144347;27;20051;-72
2023/12/28 14:34:26;;;;;;;7.47;3.00;;;;;;;;;;5143687;27;20089;-74
2023/12/28 14:36:53;;;;;;;6.38;3.25;;;;;;;;;;5143035;27;20043;-71
2023/12/28 14:39:20;;;;;;;4.47;2.42;;;;;;;;;;5142650;27;20049;-71
2023/12/28 14:41:47;;;;;;;6.65;3.08;;;;;;;;;;5143169;27;20417;-69
2023/12/28 14:44:13;;;;;;;4.60;2.60;;;;;;;;;;5133516;27;20053;-74
2023/12/28 14:46:41;;;;;;;6.05;2.55;;;;;;;;;;5128169;27;20081;-72
2023/12/28 14:49:07;;;;;;;3.83;2.45;;;;;;;;;;5142916;27;20132;-69